CDT,Max TemperatureF,Mean TemperatureF,Min TemperatureF,Max Dew PointF,MeanDew PointF,Min DewpointF,Max Humidity, Mean Humidity, Min Humidity, Max Sea Level PressureIn, Mean Sea Level PressureIn, Min Sea Level PressureIn, Max VisibilityMiles, Mean VisibilityMiles, Min VisibilityMiles, Max Wind SpeedMPH, Mean Wind SpeedMPH, Max Gust SpeedMPH,PrecipitationIn, CloudCover, Events, WindDirDegrees
2012-3-1,30,26,22,30,25,22,100,99,94,29.82,29.77,29.69,10,5,0,14,8,9,0.00,7,,35
2012-3-2,32,30,27,28,25,22,100,87,73,29.77,29.72,29.69,10,9,5,32,11,38,0.00,4,,320
2012-3-3,27,24,21,21,19,16,86,80,73,29.91,29.84,29.76,10,10,10,32,24,37,0.00,8,,306
2012-3-4,29,21,13,27,19,13,98,93,86,30.10,29.90,29.83,10,8,2,20,6,28,0.01,6,,7
2012-3-5,42,28,13,32,23,13,98,84,66,30.21,30.09,29.89,10,9,7,23,11,29,0.00,0,,204
2012-3-6,63,48,32,46,36,27,83,68,50,29.80,29.64,29.58,10,10,10,23,14,28,0.00,0,,192
2012-3-7,50,40,29,47,36,25,97,88,80,29.98,29.71,29.54,10,9,2,23,19,32,0.00,6,,283
2012-3-8,41,32,23,26,23,21,94,73,52,30.31,30.23,30.05,10,10,10,23,16,30,0.00,1,,300
2012-3-9,50,34,19,29,21,15,88,64,35,30.56,30.44,30.23,10,10,10,18,10,24,0.03,0,,109
2012-3-10,66,52,39,25,22,15,53,35,14,30.17,30.08,29.99,10,10,10,30,21,37,0.00,0,,224
2012-3-11,55,46,37,45,35,26,95,64,43,30.02,29.93,29.72,10,9,4,24,14,31,0.27,5,,186
2012-3-12,61,52,43,47,44,39,95,83,59,29.95,29.74,29.64,10,8,2,21,11,28,0.05,5,,232
2012-3-13,75,56,37,48,41,36,93,63,28,30.01,29.94,29.83,10,9,4,21,8,26,0.00,0,,161
2012-3-14,78,64,47,54,45,37,88,60,23,29.95,29.82,29.74,10,10,7,17,11,20,0.00,0,,246
2012-3-15,76,58,39,56,37,30,78,55,27,30.03,29.98,29.93,10,10,5,16,8,17,0.00,0,,86
2012-3-16,81,65,49,59,53,48,94,71,33,29.96,29.89,29.81,10,6,0,20,9,26,0.00,1,,188
2012-3-17,80,69,58,60,56,52,93,71,37,29.83,29.79,29.71,10,9,3,30,16,37,0.00,4,,186
2012-3-18,83,71,59,59,55,49,88,65,31,29.77,29.74,29.68,10,10,10,36,19,41,0.00,4,,181
2012-3-19,74,65,55,57,55,46,86,73,43,29.73,29.67,29.58,10,10,5,30,18,34,0.03,6,,182
2012-3-20,59,55,51,55,52,50,94,91,82,29.89,29.85,29.72,10,6,1,18,8,22,0.22,7,,77
2012-3-21,64,58,53,58,54,51,94,86,68,30.00,29.95,29.87,10,7,2,15,8,17,0.00,8,,133
2012-3-22,61,56,51,58,55,49,94,86,71,29.99,29.95,29.92,10,9,2,18,13,22,0.09,6,,121
2012-3-23,68,54,41,56,45,39,96,75,34,29.99,29.94,29.89,10,5,0,10,6,,0.01,5,,358
2012-3-24,77,60,44,48,38,28,84,49,17,30.01,29.96,29.92,10,10,10,9,6,,0.00,0,,344
2012-3-25,64,53,42,52,45,39,92,77,55,30.14,30.10,30.06,10,8,1,17,11,18,0.00,4,,55
2012-3-26,64,56,48,49,42,36,81,60,47,30.11,30.00,29.82,10,9,4,36,21,44,0.00,3,,124
2012-3-27,74,64,53,52,39,27,80,45,22,29.92,29.78,29.70,10,10,10,28,22,37,0.00,1,,245
2012-3-28,71,54,39,36,30,20,81,41,14,30.07,30.00,29.93,10,10,10,14,8,20,0.00,0,,15
2012-3-29,68,55,42,53,43,34,83,63,41,29.97,29.86,29.72,10,10,10,25,14,33,0.00,3,,132
2012-3-30,67,58,50,53,49,42,95,78,39,29.84,29.77,29.71,10,6,0,10,6,,0.02,5,,11
2012-3-31,80,65,50,58,52,48,96,76,34,29.80,29.72,29.63,10,5,0,18,13,23,0.00,4,,136